Time;durP1;ratioP1;P1;durP2;ratioP2;P2;SDS_P1;SDS_P2;PMS_P1;PMS_P2;Temp;Humidity;BMP_temperature;BMP_pressure;BME280_temperature;BME280_humidity;BME280_pressure;Samples;Min_cycle;Max_cycle;Signal;HPM_P1;HPM_P2
2023/08/13 00:02:09;;;;;;;2.72;2.00;;;22.20;91.80;;;;;;5076070;28;20189;-70
2023/08/13 00:04:35;;;;;;;2.13;1.92;;;22.20;91.70;;;;;;5067637;28;20201;-70
2023/08/13 00:07:01;;;;;;;2.00;1.90;;;22.20;91.70;;;;;;5059160;28;20197;-70
2023/08/13 00:09:27;;;;;;;2.40;2.20;;;22.20;91.70;;;;;;5093786;28;20687;-70
2023/08/13 00:11:53;;;;;;;2.13;1.90;;;22.20;91.60;;;;;;5075743;28;20189;-70
2023/08/13 00:14:19;;;;;;;3.03;1.90;;;22.10;91.50;;;;;;5072438;28;20297;-68
2023/08/13 00:16:47;;;;;;;2.10;2.00;;;22.20;91.50;;;;;;5070208;28;20226;-68
2023/08/13 00:19:13;;;;;;;1.92;1.83;;;22.20;91.50;;;;;;5093494;28;20209;-70
2023/08/13 00:21:39;;;;;;;2.15;1.90;;;22.20;91.40;;;;;;5075741;28;20246;-70
2023/08/13 00:24:05;;;;;;;3.05;1.80;;;22.20;91.40;;;;;;5093759;28;20193;-69
2023/08/13 00:26:31;;;;;;;1.70;1.60;;;22.10;91.30;;;;;;5084201;28;20192;-69
2023/08/13 00:28:57;;;;;;;1.98;1.80;;;22.10;91.40;;;;;;5066765;28;20778;-70
2023/08/13 00:31:23;;;;;;;1.90;1.70;;;22.10;91.40;;;;;;5075677;28;20207;-70
2023/08/13 00:33:49;;;;;;;2.08;1.70;;;22.10;91.30;;;;;;5075558;28;20212;-70
2023/08/13 00:36:15;;;;;;;2.13;2.00;;;22.10;91.40;;;;;;5054651;28;20235;-70
2023/08/13 00:38:41;;;;;;;1.67;1.58;;;22.10;91.30;;;;;;5058762;28;20213;-70
2023/08/13 00:41:08;;;;;;;2.15;1.60;;;22.10;91.40;;;;;;5075602;28;20238;-70
2023/08/13 00:43:35;;;;;;;1.85;1.70;;;22.20;91.40;;;;;;5058564;28;20250;-70
2023/08/13 00:46:04;;;;;;;2.35;2.10;;;22.10;91.40;;;;;;5075279;28;20188;-72
2023/08/13 00:48:31;;;;;;;1.75;1.65;;;22.10;91.30;;;;;;5075105;28;20212;-70
2023/08/13 00:50:57;;;;;;;2.53;1.88;;;22.10;91.30;;;;;;5074856;28;20203;-70
2023/08/13 00:53:24;;;;;;;1.77;1.67;;;22.10;91.30;;;;;;5058210;28;20262;-70
2023/08/13 00:55:50;;;;;;;1.73;1.63;;;22.10;91.20;;;;;;5092597;28;20223;-70
2023/08/13 00:58:17;;;;;;;1.67;1.58;;;22.10;91.10;;;;;;5074782;28;20193;-70
2023/08/13 01:00:43;;;;;;;2.42;1.65;;;22.10;91.10;;;;;;5074988;28;20265;-70
2023/08/13 01:03:09;;;;;;;1.90;1.73;;;22.10;91.10;;;;;;5069506;28;20287;-70
2023/08/13 01:06:17;;;;;;;2.67;1.70;;;22.10;91.10;;;;;;5057289;28;20185;-70
2023/08/13 01:09:15;;;;;;;2.10;1.90;;;22.10;91.10;;;;;;5059123;28;20247;-70
2023/08/13 01:12:17;;;;;;;3.33;2.22;;;22.10;91.10;;;;;;5083649;28;20197;-70
2023/08/13 01:15:05;;;;;;;1.50;1.30;;;22.10;91.10;;;;;;5086907;28;20208;-70
2023/08/13 01:17:34;;;;;;;3.28;1.60;;;22.10;91.10;;;;;;5074206;28;20290;-70
2023/08/13 01:20:00;;;;;;;1.73;1.63;;;22.10;91.00;;;;;;5074519;28;20212;-70
2023/08/13 01:22:28;;;;;;;2.45;2.03;;;22.10;91.00;;;;;;5091261;28;20200;-70
2023/08/13 01:24:56;;;;;;;1.77;1.65;;;22.10;91.00;;;;;;5054581;28;20185;-71
2023/08/13 01:28:23;;;;;;;1.80;1.70;;;22.10;91.00;;;;;;5070727;28;20280;-70
2023/08/13 01:30:58;;;;;;;1.77;1.67;;;22.10;91.10;;;;;;5048943;28;20300;-70
2023/08/13 01:33:31;;;;;;;1.63;1.52;;;22.10;91.00;;;;;;5084485;28;20276;-70
2023/08/13 01:36:04;;;;;;;2.00;1.80;;;22.10;91.00;;;;;;5073866;28;20565;-71
2023/08/13 01:38:31;;;;;;;1.60;1.50;;;22.10;90.90;;;;;;5073358;28;20324;-70
2023/08/13 01:41:01;;;;;;;1.90;1.80;;;22.00;90.90;;;;;;5074517;28;20660;-70
2023/08/13 01:43:27;;;;;;;1.60;1.50;;;22.10;90.90;;;;;;5087690;28;20218;-70
2023/08/13 01:45:53;;;;;;;2.10;1.80;;;22.10;90.90;;;;;;5074398;28;20211;-71
2023/08/13 01:48:18;;;;;;;1.60;1.50;;;22.10;90.90;;;;;;5072984;28;20197;-70
2023/08/13 01:50:44;;;;;;;2.05;1.60;;;22.10;90.90;;;;;;5074176;28;20212;-70
2023/08/13 01:53:10;;;;;;;1.48;1.38;;;22.00;90.80;;;;;;5073311;28;20182;-70
2023/08/13 01:55:36;;;;;;;1.60;1.50;;;22.10;90.90;;;;;;5062938;28;20261;-70
2023/08/13 01:58:02;;;;;;;1.48;1.38;;;22.10;90.90;;;;;;5073444;28;20197;-72
2023/08/13 02:00:28;;;;;;;1.58;1.48;;;22.10;90.90;;;;;;5073746;28;20263;-70
2023/08/13 02:02:55;;;;;;;1.77;1.67;;;22.00;90.80;;;;;;5074153;28;20643;-70
2023/08/13 02:05:21;;;;;;;1.40;1.30;;;22.10;90.80;;;;;;5082007;28;20187;-70
2023/08/13 02:07:47;;;;;;;1.80;1.70;;;22.10;90.80;;;;;;5056959;28;20196;-70
2023/08/13 02:10:13;;;;;;;1.80;1.70;;;22.10;90.80;;;;;;5073653;28;20196;-70
2023/08/13 02:12:39;;;;;;;1.55;1.45;;;22.00;90.80;;;;;;5057336;28;20273;-70
2023/08/13 02:15:06;;;;;;;1.70;1.60;;;22.10;90.80;;;;;;5073946;28;20211;-70
2023/08/13 02:17:31;;;;;;;1.85;1.67;;;22.00;90.70;;;;;;5080337;28;20216;-70
2023/08/13 02:19:57;;;;;;;1.90;1.55;;;22.10;90.70;;;;;;5073550;28;20233;-69
2023/08/13 02:22:23;;;;;;;2.65;1.80;;;22.10;90.70;;;;;;5073629;28;20216;-70
2023/08/13 02:24:49;;;;;;;1.70;1.60;;;22.10;90.70;;;;;;5053835;28;20192;-70
2023/08/13 02:27:15;;;;;;;1.50;1.40;;;22.10;90.70;;;;;;5087738;28;20177;-71
2023/08/13 02:29:40;;;;;;;1.60;1.50;;;22.00;90.70;;;;;;5073862;28;20284;-70
2023/08/13 02:32:06;;;;;;;1.60;1.50;;;22.10;90.80;;;;;;5072158;28;20190;-70
2023/08/13 02:34:36;;;;;;;1.50;1.40;;;22.10;90.70;;;;;;5090517;28;20208;-70
2023/08/13 02:37:01;;;;;;;1.50;1.40;;;22.10;90.70;;;;;;5070602;28;20721;-71
2023/08/13 02:39:28;;;;;;;1.55;1.45;;;22.00;90.60;;;;;;5090253;28;20197;-70
2023/08/13 02:41:54;;;;;;;2.10;1.50;;;22.00;90.70;;;;;;5073554;28;20243;-70
2023/08/13 02:44:19;;;;;;;1.55;1.45;;;22.10;90.70;;;;;;5056851;28;20185;-70
2023/08/13 02:46:47;;;;;;;1.80;1.70;;;22.10;90.60;;;;;;5073542;28;20193;-71
2023/08/13 02:49:12;;;;;;;1.65;1.55;;;22.00;90.60;;;;;;5056642;28;20205;-70
2023/08/13 02:51:38;;;;;;;1.23;1.17;;;22.10;90.70;;;;;;5073377;28;20197;-70
2023/08/13 02:54:04;;;;;;;1.60;1.50;;;22.00;90.60;;;;;;5056298;28;20266;-70
2023/08/13 02:56:30;;;;;;;1.70;1.60;;;22.00;90.60;;;;;;5056622;28;20189;-70
2023/08/13 02:58:55;;;;;;;1.40;1.30;;;22.00;90.60;;;;;;5074399;28;20257;-71
2023/08/13 03:01:21;;;;;;;1.67;1.58;;;22.00;90.50;;;;;;5068835;28;20656;-70
2023/08/13 03:03:49;;;;;;;1.40;1.30;;;22.00;90.60;;;;;;5077072;28;20189;-69
2023/08/13 03:06:15;;;;;;;1.15;1.15;;;22.00;90.50;;;;;;5094052;28;20188;-70
2023/08/13 03:08:40;;;;;;;1.58;1.48;;;22.00;90.50;;;;;;5077072;28;20200;-70
2023/08/13 03:11:06;;;;;;;1.70;1.60;;;22.00;90.50;;;;;;5077353;28;20674;-71
2023/08/13 03:13:32;;;;;;;1.48;1.30;;;22.00;90.50;;;;;;5077116;28;20197;-70
2023/08/13 03:15:58;;;;;;;1.60;1.50;;;22.00;90.50;;;;;;5076880;28;20180;-70
2023/08/13 03:18:24;;;;;;;1.42;1.25;;;22.00;90.50;;;;;;5094791;28;20208;-69
2023/08/13 03:20:52;;;;;;;1.45;1.35;;;22.00;90.50;;;;;;5060547;28;20599;-70
2023/08/13 03:23:18;;;;;;;1.30;1.20;;;22.00;90.50;;;;;;5093694;28;20192;-70
2023/08/13 03:25:44;;;;;;;1.65;1.55;;;22.00;90.50;;;;;;5093716;28;20185;-70
2023/08/13 03:28:10;;;;;;;1.77;1.60;;;22.00;90.50;;;;;;5062182;28;20231;-70
2023/08/13 03:30:36;;;;;;;1.20;1.15;;;22.00;90.50;;;;;;5060104;28;20187;-70
2023/08/13 03:33:02;;;;;;;1.30;1.20;;;22.00;90.50;;;;;;5085172;28;20321;-70
2023/08/13 03:35:28;;;;;;;1.30;1.20;;;22.00;90.40;;;;;;5076812;28;20661;-70
2023/08/13 03:37:55;;;;;;;1.52;1.42;;;22.00;90.50;;;;;;5059899;28;20270;-70
2023/08/13 03:40:21;;;;;;;1.70;1.60;;;22.00;90.40;;;;;;5076474;28;20181;-70
2023/08/13 03:42:46;;;;;;;1.55;1.45;;;22.00;90.50;;;;;;5065554;28;20181;-70
2023/08/13 03:45:12;;;;;;;1.75;1.65;;;22.00;90.40;;;;;;5093638;28;20188;-70
2023/08/13 03:47:38;;;;;;;1.55;1.45;;;22.00;90.50;;;;;;5076294;28;20573;-70
2023/08/13 03:50:04;;;;;;;1.40;1.30;;;22.00;90.50;;;;;;5076619;28;20209;-71
2023/08/13 03:52:30;;;;;;;1.70;1.60;;;22.00;90.40;;;;;;5068428;28;20232;-70
2023/08/13 03:54:56;;;;;;;1.50;1.40;;;22.00;90.40;;;;;;5084370;28;20229;-70
2023/08/13 03:57:22;;;;;;;1.20;1.10;;;22.00;90.50;;;;;;5091699;28;20192;-71
2023/08/13 03:59:47;;;;;;;1.30;1.20;;;21.90;90.50;;;;;;5081998;28;20201;-70
2023/08/13 04:02:14;;;;;;;1.50;1.40;;;22.00;90.40;;;;;;5075970;28;20173;-68
2023/08/13 04:04:40;;;;;;;1.40;1.30;;;22.00;90.50;;;;;;5093222;28;20188;-70
2023/08/13 04:07:06;;;;;;;1.20;1.10;;;22.00;90.40;;;;;;5072967;28;20185;-70
2023/08/13 04:09:32;;;;;;;1.60;1.40;;;22.00;90.40;;;;;;5083775;28;20200;-70
2023/08/13 04:11:58;;;;;;;1.40;1.35;;;22.00;90.40;;;;;;5058530;28;20208;-71
2023/08/13 04:14:24;;;;;;;1.20;1.10;;;22.00;90.40;;;;;;5084305;28;20213;-70
2023/08/13 04:16:50;;;;;;;1.98;1.38;;;22.00;90.40;;;;;;5072721;28;20320;-70
2023/08/13 04:19:16;;;;;;;1.50;1.40;;;22.00;90.40;;;;;;5058932;28;20196;-70
2023/08/13 04:21:42;;;;;;;1.13;1.10;;;22.00;90.40;;;;;;5075863;28;20181;-70
2023/08/13 04:24:10;;;;;;;1.50;1.40;;;22.00;90.40;;;;;;5072979;28;20186;-70
2023/08/13 04:26:36;;;;;;;1.55;1.42;;;22.00;90.40;;;;;;5088966;28;20185;-70
2023/08/13 04:29:03;;;;;;;1.52;1.42;;;22.00;90.70;;;;;;5067287;28;20209;-70
2023/08/13 04:31:29;;;;;;;1.50;1.40;;;21.90;90.30;;;;;;5067771;28;20192;-70
2023/08/13 04:33:55;;;;;;;1.50;1.40;;;21.90;90.30;;;;;;5059235;28;20207;-70
2023/08/13 04:36:21;;;;;;;1.10;1.05;;;22.00;90.40;;;;;;5075453;28;20185;-70
2023/08/13 04:38:46;;;;;;;1.45;1.35;;;22.00;90.30;;;;;;5075269;28;20208;-70
2023/08/13 04:41:12;;;;;;;1.50;1.40;;;22.00;90.40;;;;;;5089665;28;20204;-70
2023/08/13 04:43:44;;;;;;;1.35;1.25;;;22.00;90.40;;;;;;5068121;28;20652;-70
2023/08/13 04:46:10;;;;;;;1.23;1.23;;;22.00;90.40;;;;;;5062478;28;20181;-71
2023/08/13 04:48:46;;;;;;;1.30;1.20;;;21.90;90.30;;;;;;5066544;28;20197;-71
2023/08/13 04:51:15;;;;;;;1.20;1.20;;;21.90;90.30;;;;;;5078249;28;20298;-70
2023/08/13 04:53:42;;;;;;;1.13;1.02;;;22.00;90.40;;;;;;5074969;28;20188;-69
2023/08/13 04:56:08;;;;;;;1.35;1.25;;;22.00;90.30;;;;;;5074885;28;20314;-70
2023/08/13 04:58:35;;;;;;;1.30;1.20;;;21.90;90.30;;;;;;5058243;28;20250;-70
2023/08/13 05:01:02;;;;;;;1.00;1.00;;;21.90;90.30;;;;;;5075091;28;20169;-70
2023/08/13 05:03:31;;;;;;;1.40;1.30;;;22.00;90.40;;;;;;5073933;28;20278;-70
2023/08/13 05:05:57;;;;;;;1.20;1.10;;;22.00;90.40;;;;;;5074860;28;20189;-69
2023/08/13 05:08:24;;;;;;;1.40;1.30;;;22.00;90.40;;;;;;5058365;28;20216;-70
2023/08/13 05:10:50;;;;;;;1.33;1.23;;;21.90;90.30;;;;;;5074743;28;20177;-70
2023/08/13 05:13:16;;;;;;;1.50;1.40;;;21.90;90.30;;;;;;5074607;28;20173;-70
2023/08/13 05:15:43;;;;;;;1.42;1.33;;;21.90;90.40;;;;;;5074946;28;20216;-70
2023/08/13 05:18:09;;;;;;;1.50;1.40;;;21.90;90.30;;;;;;5057758;28;20211;-70
2023/08/13 05:20:35;;;;;;;1.00;1.00;;;21.90;90.40;;;;;;5049771;28;20234;-70
2023/08/13 05:23:01;;;;;;;1.35;1.25;;;21.90;90.40;;;;;;5062974;28;20173;-70
2023/08/13 05:25:27;;;;;;;1.30;1.20;;;21.90;90.40;;;;;;5067526;28;20203;-70
2023/08/13 05:27:52;;;;;;;1.10;1.10;;;21.90;90.40;;;;;;5092380;28;20189;-70
2023/08/13 05:30:19;;;;;;;1.60;1.50;;;21.90;90.50;;;;;;5074388;28;20192;-69
2023/08/13 05:32:48;;;;;;;1.40;1.30;;;22.00;90.50;;;;;;5083028;28;20272;-70
2023/08/13 05:35:14;;;;;;;1.50;1.40;;;21.90;90.60;;;;;;5061456;28;20247;-70
2023/08/13 05:37:40;;;;;;;1.30;1.20;;;21.90;90.50;;;;;;5079013;28;20197;-70
2023/08/13 05:40:08;;;;;;;1.05;1.05;;;21.90;90.50;;;;;;5060169;28;20260;-70
2023/08/13 05:42:35;;;;;;;1.15;1.10;;;21.90;90.60;;;;;;5057852;28;20193;-70
2023/08/13 05:45:01;;;;;;;1.38;1.27;;;21.90;90.60;;;;;;5073666;28;20691;-70
2023/08/13 05:47:27;;;;;;;1.30;1.20;;;21.90;90.70;;;;;;5082422;28;20695;-70
2023/08/13 05:49:53;;;;;;;1.13;1.13;;;21.90;90.60;;;;;;5057304;28;20200;-70
2023/08/13 05:52:19;;;;;;;1.52;1.42;;;21.90;90.70;;;;;;5073807;28;20196;-70
2023/08/13 05:54:47;;;;;;;1.30;1.20;;;22.00;90.60;;;;;;5075589;28;20235;-70
2023/08/13 05:57:13;;;;;;;1.33;1.30;;;21.90;90.70;;;;;;5085303;28;20596;-69
2023/08/13 05:59:38;;;;;;;1.92;1.25;;;21.90;90.60;;;;;;5099287;28;20211;-70
2023/08/13 06:02:04;;;;;;;1.27;1.27;;;21.90;90.50;;;;;;5080820;28;20187;-70
2023/08/13 06:04:34;;;;;;;1.30;1.30;;;21.90;90.50;;;;;;5067260;28;20184;-70
2023/08/13 06:07:01;;;;;;;1.63;1.52;;;21.90;90.50;;;;;;5102713;28;20180;-69
2023/08/13 06:09:27;;;;;;;1.58;1.45;;;21.90;90.60;;;;;;5084030;28;20200;-70
2023/08/13 06:11:53;;;;;;;1.60;1.50;;;21.90;90.50;;;;;;5082386;28;20177;-70
2023/08/13 06:14:19;;;;;;;1.40;1.30;;;21.90;90.50;;;;;;5073872;28;20245;-70
2023/08/13 06:16:44;;;;;;;1.58;1.48;;;21.90;90.50;;;;;;5060917;28;20223;-70
2023/08/13 06:19:10;;;;;;;1.15;1.10;;;21.90;90.50;;;;;;5068781;28;20196;-70
2023/08/13 06:21:36;;;;;;;1.15;1.15;;;21.90;90.50;;;;;;5083628;28;20651;-70
2023/08/13 06:24:02;;;;;;;1.40;1.30;;;21.90;90.50;;;;;;5088027;28;20193;-70
2023/08/13 06:26:27;;;;;;;1.70;1.42;;;21.90;90.60;;;;;;5100229;28;20614;-70
2023/08/13 06:28:53;;;;;;;1.15;1.15;;;21.90;90.60;;;;;;5078159;28;20196;-70
2023/08/13 06:31:19;;;;;;;1.23;1.20;;;21.90;90.60;;;;;;5077289;28;20181;-70
2023/08/13 06:33:44;;;;;;;1.30;1.20;;;21.90;90.60;;;;;;5078436;28;20188;-70
2023/08/13 06:36:10;;;;;;;1.35;1.30;;;21.90;90.70;;;;;;5073029;28;20176;-70
2023/08/13 06:38:37;;;;;;;1.30;1.20;;;21.90;90.60;;;;;;5062291;28;20207;-70
2023/08/13 06:41:06;;;;;;;1.20;1.17;;;21.90;90.60;;;;;;5077845;28;20238;-70
2023/08/13 06:43:35;;;;;;;1.40;1.30;;;21.90;90.80;;;;;;5087780;28;20446;-70
2023/08/13 06:46:02;;;;;;;1.60;1.50;;;21.90;90.70;;;;;;5084304;28;20260;-70
2023/08/13 06:48:33;;;;;;;1.40;1.30;;;21.90;90.80;;;;;;5086858;28;20204;-70
2023/08/13 06:50:59;;;;;;;1.50;1.40;;;21.90;91.20;;;;;;5089413;28;20252;-70
2023/08/13 06:53:26;;;;;;;1.35;1.27;;;21.90;90.90;;;;;;5097773;28;20180;-70
2023/08/13 06:55:52;;;;;;;1.40;1.30;;;21.90;90.80;;;;;;5085735;28;20300;-70
2023/08/13 06:58:18;;;;;;;1.88;1.42;;;21.90;90.70;;;;;;5084983;28;20203;-70
2023/08/13 07:00:46;;;;;;;1.30;1.20;;;21.90;90.70;;;;;;5069859;28;20173;-70
2023/08/13 07:03:11;;;;;;;1.10;1.10;;;21.90;90.60;;;;;;5086015;28;20214;-70
2023/08/13 07:05:40;;;;;;;1.40;1.30;;;21.90;90.70;;;;;;5077232;28;20231;-70
2023/08/13 07:08:06;;;;;;;1.35;1.20;;;21.90;90.60;;;;;;5093732;28;20710;-70
2023/08/13 07:10:32;;;;;;;1.20;1.20;;;21.90;90.80;;;;;;5094767;28;20189;-70
2023/08/13 07:12:58;;;;;;;1.40;1.30;;;21.90;90.70;;;;;;5077050;28;20185;-70
2023/08/13 07:15:24;;;;;;;1.42;1.33;;;21.90;90.80;;;;;;5085361;28;20212;-70
2023/08/13 07:17:50;;;;;;;1.48;1.38;;;21.90;90.70;;;;;;5068012;28;20659;-70
2023/08/13 07:20:16;;;;;;;1.75;1.63;;;21.90;90.90;;;;;;5085450;28;20175;-70
2023/08/13 07:22:44;;;;;;;1.63;1.52;;;21.90;90.90;;;;;;5097374;28;20189;-70
2023/08/13 07:25:11;;;;;;;1.38;1.33;;;21.90;90.90;;;;;;5065783;28;20267;-70
2023/08/13 07:27:42;;;;;;;1.45;1.35;;;21.90;91.00;;;;;;5103213;28;20181;-70
2023/08/13 07:30:11;;;;;;;1.08;1.08;;;21.90;91.10;;;;;;5076439;28;20195;-70
2023/08/13 07:32:42;;;;;;;1.20;1.20;;;21.90;91.00;;;;;;5081847;28;20197;-70
2023/08/13 07:35:10;;;;;;;1.50;1.40;;;22.00;91.30;;;;;;5081005;28;20224;-70
2023/08/13 07:37:36;;;;;;;1.40;1.30;;;21.90;91.30;;;;;;5076751;28;20208;-70
2023/08/13 07:40:07;;;;;;;2.10;1.40;;;21.90;91.60;;;;;;5084988;28;20890;-70
2023/08/13 07:42:36;;;;;;;1.08;1.08;;;21.90;91.60;;;;;;5103854;28;20276;-70
2023/08/13 07:45:05;;;;;;;1.40;1.30;;;22.00;91.70;;;;;;5069560;28;20255;-70
2023/08/13 07:47:32;;;;;;;1.50;1.40;;;21.90;91.60;;;;;;5084600;28;20275;-68
2023/08/13 07:49:58;;;;;;;2.33;1.40;;;22.00;91.70;;;;;;5081105;28;20211;-70
2023/08/13 07:52:24;;;;;;;1.80;1.65;;;22.00;91.40;;;;;;5097425;28;20200;-70
2023/08/13 07:54:50;;;;;;;2.88;1.75;;;22.10;91.70;;;;;;5087513;28;20267;-70
2023/08/13 07:57:15;;;;;;;2.30;1.63;;;22.00;92.20;;;;;;5087985;28;20178;-70
2023/08/13 07:59:41;;;;;;;1.92;1.77;;;22.10;92.30;;;;;;5086217;28;20218;-70
2023/08/13 08:02:08;;;;;;;1.40;1.30;;;22.10;92.70;;;;;;5098294;28;20609;-70
2023/08/13 08:04:34;;;;;;;1.67;1.40;;;22.10;92.50;;;;;;5082719;28;20189;-69
2023/08/13 08:07:00;;;;;;;3.47;1.70;;;22.10;92.50;;;;;;5071053;28;20181;-69
2023/08/13 08:09:25;;;;;;;1.75;1.63;;;22.10;92.90;;;;;;5084769;28;20220;-69
2023/08/13 08:11:51;;;;;;;9.80;2.47;;;22.10;93.00;;;;;;5084433;28;20276;-70
2023/08/13 08:14:17;;;;;;;3.15;2.05;;;22.10;93.60;;;;;;5084632;28;20238;-70
2023/08/13 08:16:43;;;;;;;4.03;2.10;;;22.10;93.90;;;;;;5069047;28;20207;-70
2023/08/13 08:19:09;;;;;;;3.17;2.30;;;22.20;94.00;;;;;;5061471;28;20201;-70
2023/08/13 08:21:34;;;;;;;3.60;2.47;;;22.10;94.10;;;;;;5079489;28;20192;-69
2023/08/13 08:24:03;;;;;;;3.15;1.90;;;22.10;94.50;;;;;;5070805;28;20225;-70
2023/08/13 08:26:28;;;;;;;2.63;1.98;;;22.20;94.70;;;;;;5105878;28;20203;-70
2023/08/13 08:28:54;;;;;;;3.55;2.08;;;22.20;94.80;;;;;;5093649;28;20208;-69
2023/08/13 08:31:20;;;;;;;3.85;2.30;;;22.20;94.90;;;;;;5082579;28;20188;-70
2023/08/13 08:33:46;;;;;;;2.83;2.17;;;22.20;95.00;;;;;;5085625;28;20267;-70
2023/08/13 08:36:12;;;;;;;4.40;2.15;;;22.20;95.10;;;;;;5084139;28;20272;-69
2023/08/13 08:38:38;;;;;;;4.38;2.60;;;22.20;95.20;;;;;;5083853;28;20363;-69
2023/08/13 08:41:04;;;;;;;7.45;2.60;;;22.20;95.40;;;;;;5083904;28;20197;-70
2023/08/13 08:43:33;;;;;;;5.82;2.60;;;22.20;95.60;;;;;;5067124;28;20180;-69
2023/08/13 08:46:00;;;;;;;7.15;2.92;;;22.20;95.90;;;;;;5092473;28;20190;-69
2023/08/13 08:48:28;;;;;;;5.20;2.70;;;22.20;96.10;;;;;;5083485;28;20213;-69
2023/08/13 08:50:54;;;;;;;5.03;2.50;;;22.20;96.20;;;;;;5083092;28;20224;-70
2023/08/13 08:53:25;;;;;;;6.88;2.55;;;22.30;96.50;;;;;;5083853;28;20267;-70
2023/08/13 08:55:52;;;;;;;12.10;3.08;;;22.30;96.70;;;;;;5084913;28;20216;-70
2023/08/13 08:58:18;;;;;;;7.05;2.90;;;22.30;97.10;;;;;;5086598;28;20200;-70
2023/08/13 09:00:44;;;;;;;5.03;2.80;;;22.30;97.40;;;;;;5102494;28;20187;-70
2023/08/13 09:03:10;;;;;;;5.28;2.83;;;22.30;97.80;;;;;;5080335;28;20196;-69
2023/08/13 09:05:38;;;;;;;5.50;2.75;;;22.40;98.10;;;;;;5066980;28;20185;-68
2023/08/13 09:08:12;;;;;;;6.85;2.97;;;22.40;98.30;;;;;;5103579;28;20234;-70
2023/08/13 09:10:42;;;;;;;3.42;2.75;;;22.40;98.40;;;;;;5086396;28;20267;-69
2023/08/13 09:13:08;;;;;;;4.63;2.80;;;22.40;98.60;;;;;;5083250;28;20188;-69
2023/08/13 09:15:34;;;;;;;4.60;2.50;;;22.40;98.70;;;;;;5092940;28;20205;-69
2023/08/13 09:18:00;;;;;;;3.40;2.75;;;22.40;99.00;;;;;;5074729;28;20191;-70
2023/08/13 09:20:26;;;;;;;14.98;2.80;;;22.40;99.20;;;;;;5054673;28;20186;-70
2023/08/13 09:22:52;;;;;;;7.18;2.88;;;22.40;99.60;;;;;;5081813;28;20267;-71
2023/08/13 09:25:19;;;;;;;5.05;2.60;;;22.40;99.80;;;;;;5078240;28;20202;-70
2023/08/13 09:27:46;;;;;;;7.25;3.05;;;22.40;99.50;;;;;;5094360;28;20181;-69
2023/08/13 09:30:21;;;;;;;7.68;2.67;;;22.40;99.90;;;;;;5083487;28;20192;-70
2023/08/13 09:32:47;;;;;;;5.38;2.78;;;22.40;99.90;;;;;;5066211;28;20193;-69
2023/08/13 09:35:13;;;;;;;5.07;2.65;;;22.50;99.90;;;;;;5083053;28;20371;-69
2023/08/13 09:37:39;;;;;;;4.68;3.17;;;22.50;99.90;;;;;;5082603;28;20180;-70
2023/08/13 09:40:06;;;;;;;6.47;3.00;;;22.50;99.90;;;;;;5074476;28;20300;-70
2023/08/13 09:42:36;;;;;;;4.53;3.03;;;22.50;99.90;;;;;;5094005;28;20224;-68
2023/08/13 09:45:05;;;;;;;4.63;3.00;;;22.50;99.90;;;;;;5073822;28;20296;-68
2023/08/13 09:47:35;;;;;;;5.68;2.90;;;22.50;99.90;;;;;;5083460;28;20180;-67
2023/08/13 09:50:02;;;;;;;3.83;3.00;;;22.50;99.90;;;;;;5073758;28;20208;-70
2023/08/13 09:52:31;;;;;;;7.47;3.10;;;22.50;99.90;;;;;;5100647;28;20200;-69
2023/08/13 09:55:15;;;;;;;6.07;2.88;;;22.50;99.90;;;;;;5082426;28;20218;-69
2023/08/13 09:57:43;;;;;;;4.60;2.97;;;22.60;99.90;;;;;;5085233;28;20184;-69
2023/08/13 10:00:12;;;;;;;3.53;3.15;;;22.50;99.90;;;;;;5080332;28;20177;-69
2023/08/13 10:02:42;;;;;;;3.72;3.25;;;22.50;99.90;;;;;;5078848;28;20177;-69
2023/08/13 10:05:09;;;;;;;3.95;2.60;;;22.60;99.90;;;;;;5082288;28;20267;-70
2023/08/13 10:07:39;;;;;;;3.47;2.78;;;22.50;99.90;;;;;;5090730;28;20252;-69
2023/08/13 10:10:05;;;;;;;3.75;2.90;;;22.60;99.90;;;;;;5073389;28;20203;-69
2023/08/13 10:12:31;;;;;;;4.63;2.67;;;22.60;99.90;;;;;;5082608;28;20189;-70
2023/08/13 10:14:59;;;;;;;3.15;2.85;;;22.50;99.90;;;;;;5099315;28;20207;-70
2023/08/13 10:17:27;;;;;;;4.65;2.90;;;22.60;99.90;;;;;;5065787;28;20192;-70
2023/08/13 10:19:56;;;;;;;4.47;2.85;;;22.60;99.90;;;;;;5083482;28;20208;-69
2023/08/13 10:22:39;;;;;;;4.78;3.08;;;22.60;99.90;;;;;;5073710;28;20181;-70
2023/08/13 10:25:07;;;;;;;4.00;2.80;;;22.60;99.90;;;;;;5082202;28;20181;-70
2023/08/13 10:27:42;;;;;;;5.75;3.40;;;22.60;99.90;;;;;;5073539;28;20571;-70
2023/08/13 10:30:13;;;;;;;3.13;2.70;;;22.60;99.90;;;;;;5073930;28;20200;-70
2023/08/13 10:33:08;;;;;;;4.85;3.20;;;22.60;99.90;;;;;;5099042;28;20268;-69
2023/08/13 10:35:38;;;;;;;2.63;2.42;;;22.60;99.90;;;;;;5068536;28;20232;-70
2023/08/13 10:38:07;;;;;;;3.50;3.20;;;22.70;99.90;;;;;;5084711;28;20687;-69
2023/08/13 10:40:34;;;;;;;4.43;3.03;;;22.70;99.90;;;;;;5087257;28;20192;-70
2023/08/13 10:43:01;;;;;;;3.53;2.83;;;22.70;99.90;;;;;;5067617;28;20185;-70
2023/08/13 10:45:34;;;;;;;3.97;3.28;;;22.70;99.90;;;;;;5092217;28;20659;-69
2023/08/13 10:48:02;;;;;;;4.97;3.10;;;22.70;99.90;;;;;;5101151;28;20187;-70
2023/08/13 10:50:40;;;;;;;4.93;3.33;;;22.70;99.90;;;;;;5082235;28;20189;-71
2023/08/13 10:53:12;;;;;;;4.28;3.50;;;22.70;99.90;;;;;;5085320;28;20184;-70
2023/08/13 10:55:48;;;;;;;6.70;3.53;;;22.70;99.90;;;;;;5100854;28;20283;-70
2023/08/13 10:58:33;;;;;;;4.40;3.38;;;22.70;99.90;;;;;;5073629;28;20193;-71
2023/08/13 11:01:08;;;;;;;4.28;3.20;;;22.70;99.90;;;;;;5081035;28;20283;-69
2023/08/13 11:03:41;;;;;;;4.32;2.83;;;22.70;99.90;;;;;;5080130;28;20199;-70
2023/08/13 11:06:07;;;;;;;3.30;3.00;;;22.70;99.90;;;;;;5082636;28;20191;-70
2023/08/13 11:08:38;;;;;;;4.88;3.00;;;22.70;99.90;;;;;;5079461;28;20219;-70
2023/08/13 11:11:06;;;;;;;3.50;3.08;;;22.70;99.90;;;;;;5082751;28;20180;-70
2023/08/13 11:13:32;;;;;;;4.47;3.20;;;22.70;99.90;;;;;;5098383;28;20209;-71
2023/08/13 11:15:58;;;;;;;4.55;3.13;;;22.70;99.90;;;;;;5081996;28;20204;-70
2023/08/13 11:18:24;;;;;;;6.03;3.30;;;22.70;99.90;;;;;;5081469;28;20204;-70
2023/08/13 11:20:51;;;;;;;3.47;2.83;;;22.70;99.90;;;;;;5097834;28;20229;-71
2023/08/13 11:23:21;;;;;;;3.38;2.88;;;22.80;99.90;;;;;;5080715;28;20187;-69
2023/08/13 11:25:48;;;;;;;5.25;3.58;;;22.70;99.90;;;;;;5089045;28;20188;-69
2023/08/13 11:28:26;;;;;;;3.22;2.92;;;22.70;99.90;;;;;;5085283;28;20204;-69
2023/08/13 11:30:56;;;;;;;3.22;2.92;;;22.80;99.90;;;;;;5085818;28;20565;-69
2023/08/13 11:33:23;;;;;;;4.78;3.60;;;22.70;99.90;;;;;;5088797;28;20184;-70
2023/08/13 11:35:50;;;;;;;4.50;3.45;;;22.70;99.90;;;;;;5088797;28;20218;-70
2023/08/13 11:38:17;;;;;;;3.72;3.42;;;22.80;99.90;;;;;;5101966;28;20197;-69
2023/08/13 11:40:43;;;;;;;3.83;3.38;;;22.80;99.90;;;;;;5085263;28;20203;-69
2023/08/13 11:43:12;;;;;;;5.07;3.45;;;22.80;99.90;;;;;;5104858;28;20188;-69
2023/08/13 11:45:39;;;;;;;3.63;3.33;;;22.80;99.90;;;;;;5099929;28;20189;-69
2023/08/13 11:48:16;;;;;;;3.05;2.83;;;22.80;99.90;;;;;;5086852;28;20299;-70
2023/08/13 11:51:12;;;;;;;4.05;3.25;;;22.80;99.90;;;;;;5076889;28;20193;-69
2023/08/13 11:53:44;;;;;;;4.80;3.30;;;22.80;99.90;;;;;;5060228;28;20196;-70
2023/08/13 11:56:14;;;;;;;4.18;3.67;;;22.80;99.90;;;;;;5087438;28;20212;-70
2023/08/13 11:58:40;;;;;;;6.20;3.55;;;22.80;99.90;;;;;;5079551;28;20284;-70
2023/08/13 12:01:06;;;;;;;4.43;3.45;;;22.80;99.90;;;;;;5106430;28;20188;-70
2023/08/13 12:03:41;;;;;;;5.28;3.80;;;22.80;99.90;;;;;;5088218;28;20608;-70
2023/08/13 12:06:08;;;;;;;3.47;3.17;;;22.80;99.90;;;;;;5077756;28;20236;-69
2023/08/13 12:08:34;;;;;;;6.28;3.72;;;22.70;99.90;;;;;;5093185;28;20260;-69
2023/08/13 12:11:01;;;;;;;4.20;3.80;;;22.80;99.90;;;;;;5085646;28;20191;-70
2023/08/13 12:13:28;;;;;;;4.75;3.38;;;22.80;99.90;;;;;;5087783;28;20187;-69
2023/08/13 12:15:54;;;;;;;3.85;3.38;;;22.80;99.90;;;;;;5092211;28;20783;-69
2023/08/13 12:18:20;;;;;;;5.60;3.67;;;22.70;99.90;;;;;;5075612;28;20296;-69
2023/08/13 12:20:45;;;;;;;7.38;3.72;;;22.70;99.90;;;;;;5068583;28;20186;-70
2023/08/13 12:23:11;;;;;;;6.53;3.75;;;22.70;99.90;;;;;;5104068;28;20196;-69
2023/08/13 12:25:37;;;;;;;8.77;4.05;;;22.70;99.90;;;;;;5081889;28;20192;-69
2023/08/13 12:28:03;;;;;;;5.40;3.83;;;22.70;99.90;;;;;;5085238;28;20188;-69
2023/08/13 12:30:29;;;;;;;5.07;3.78;;;22.70;99.90;;;;;;5095964;28;20187;-70
2023/08/13 12:32:55;;;;;;;7.30;3.55;;;22.70;99.90;;;;;;5103557;28;20188;-69
2023/08/13 12:35:24;;;;;;;6.88;3.45;;;22.70;99.90;;;;;;5102223;28;20254;-70
2023/08/13 12:37:50;;;;;;;4.22;3.33;;;22.70;99.90;;;;;;5083889;28;20181;-70
2023/08/13 12:40:16;;;;;;;4.47;3.42;;;22.70;99.90;;;;;;5087235;28;20198;-70
2023/08/13 12:42:42;;;;;;;5.30;2.85;;;22.70;99.90;;;;;;5080936;28;20710;-70
2023/08/13 12:45:08;;;;;;;4.80;3.15;;;22.70;99.90;;;;;;5084149;28;20192;-70
2023/08/13 12:47:35;;;;;;;5.05;3.28;;;22.70;99.90;;;;;;5072288;28;20221;-69
2023/08/13 12:50:07;;;;;;;3.67;3.10;;;22.70;99.90;;;;;;5078743;28;20734;-69
2023/08/13 12:52:34;;;;;;;4.22;3.00;;;22.70;99.90;;;;;;5105214;28;20199;-70